createdAt,value
2022-07-26T00:00:33.206Z,99374.09
2022-07-26T00:03:00.275Z,99366.94
2022-07-26T00:05:27.067Z,99366.25
2022-07-26T00:08:10.893Z,99362.59
2022-07-26T00:10:38.812Z,99355.28
2022-07-26T00:13:05.583Z,99356.81
2022-07-26T00:15:32.575Z,99358.75
2022-07-26T00:17:59.664Z,99354.22
2022-07-26T00:20:27.524Z,99351.50
2022-07-26T00:22:54.531Z,99347.16
2022-07-26T00:25:21.542Z,99346.94
2022-07-26T00:27:48.609Z,99342.19
2022-07-26T00:30:15.496Z,99333.97
2022-07-26T00:32:42.575Z,99342.03
2022-07-26T00:35:10.793Z,99338.25
2022-07-26T00:37:37.731Z,99333.88
2022-07-26T00:40:05.358Z,99338.47
2022-07-26T00:42:34.645Z,99329.75
2022-07-26T00:45:01.521Z,99331.63
2022-07-26T00:47:28.549Z,99332.34
2022-07-26T00:49:55.638Z,99337.72
2022-07-26T00:52:22.444Z,99333.50
2022-07-26T00:54:49.563Z,99329.28
2022-07-26T00:57:16.434Z,99330.31
2022-07-26T00:59:43.270Z,99327.97
2022-07-26T01:02:10.509Z,99326.44
2022-07-26T01:04:37.505Z,99318.25
2022-07-26T01:07:14.636Z,99319.16
2022-07-26T01:09:42.618Z,99317.47
2022-07-26T01:12:10.061Z,99307.97
2022-07-26T01:14:36.843Z,99308.41
2022-07-26T01:17:04.115Z,99307.81
2022-07-26T01:19:30.918Z,99301.13
2022-07-26T01:21:57.764Z,99292.59
2022-07-26T01:24:24.868Z,99298.59
2022-07-26T01:26:51.732Z,99295.44
2022-07-26T01:29:18.476Z,99308.56
2022-07-26T01:31:45.546Z,99293.31
2022-07-26T01:34:12.755Z,99296.25
2022-07-26T01:36:39.718Z,99284.75
2022-07-26T01:39:07.026Z,99279.78
2022-07-26T01:41:38.067Z,99275.31
2022-07-26T01:44:06.508Z,99274.19
2022-07-26T01:46:34.259Z,99271.75
2022-07-26T01:49:01.846Z,99274.75
2022-07-26T01:51:28.819Z,99270.91
2022-07-26T01:53:56.277Z,99269.50
2022-07-26T01:56:23.190Z,99268.66
2022-07-26T01:58:50.291Z,99264.63
2022-07-26T02:01:39.464Z,99264.47
2022-07-26T02:04:04.948Z,99268.22
2022-07-26T02:06:31.896Z,99267.50
2022-07-26T02:09:00.489Z,99267.63
2022-07-26T02:11:28.186Z,99257.31
2022-07-26T02:13:54.891Z,99262.97
2022-07-26T02:16:22.036Z,99263.97
2022-07-26T02:18:49.208Z,99265.38
2022-07-26T02:21:15.921Z,99267.56
2022-07-26T02:23:42.663Z,99276.25
2022-07-26T02:26:10.023Z,99280.47
2022-07-26T02:28:36.841Z,99278.78
2022-07-26T02:31:04.305Z,99274.53
2022-07-26T02:33:31.398Z,99277.34
2022-07-26T02:35:58.169Z,99271.75
2022-07-26T02:38:25.071Z,99274.31
2022-07-26T02:40:52.849Z,99274.41
2022-07-26T02:43:20.059Z,99287.59
2022-07-26T02:46:01.037Z,99284.00
2022-07-26T02:48:32.863Z,99275.81
2022-07-26T02:50:59.746Z,99275.56
2022-07-26T02:53:26.502Z,99267.69
2022-07-26T02:55:53.549Z,99268.44
2022-07-26T02:58:25.111Z,99268.03
2022-07-26T03:00:51.906Z,99274.28
2022-07-26T03:03:18.906Z,99273.91
2022-07-26T03:05:45.745Z,99272.53
2022-07-26T03:08:12.922Z,99275.13
2022-07-26T03:10:40.627Z,99277.28
2022-07-26T03:13:07.461Z,99278.16
2022-07-26T03:15:34.200Z,99269.97
2022-07-26T03:18:01.415Z,99268.41
2022-07-26T03:20:28.609Z,99275.19
2022-07-26T03:22:55.334Z,99273.72
2022-07-26T03:25:22.373Z,99280.56
2022-07-26T03:27:49.085Z,99280.41
2022-07-26T03:30:16.518Z,99283.00
2022-07-26T03:32:52.382Z,99277.72
2022-07-26T03:35:19.134Z,99276.78
2022-07-26T03:37:46.748Z,99277.16
2022-07-26T03:40:17.450Z,99273.56
2022-07-26T03:42:45.337Z,99277.28
2022-07-26T03:45:13.216Z,99264.13
2022-07-26T03:47:40.000Z,99257.81
2022-07-26T03:50:07.425Z,99251.84
2022-07-26T03:52:34.607Z,99267.25
2022-07-26T03:55:01.462Z,99255.88
2022-07-26T03:57:28.542Z,99258.12
2022-07-26T03:59:55.945Z,99251.25
2022-07-26T04:02:23.352Z,99255.09
2022-07-26T04:04:50.433Z,99253.41
2022-07-26T04:07:17.143Z,99246.84
2022-07-26T04:09:43.932Z,99251.44
2022-07-26T04:12:11.320Z,99246.72
2022-07-26T04:14:38.655Z,99234.72
2022-07-26T04:17:05.556Z,99243.75
2022-07-26T04:19:32.629Z,99239.47
2022-07-26T04:22:04.734Z,99237.88
2022-07-26T04:24:31.613Z,99236.97
2022-07-26T04:26:58.630Z,99245.66
2022-07-26T04:29:25.355Z,99235.09
2022-07-26T04:31:52.177Z,99248.66
2022-07-26T04:34:19.245Z,99269.63
2022-07-26T04:36:46.195Z,99311.56
2022-07-26T04:39:12.958Z,99376.41
2022-07-26T04:41:39.966Z,99355.31
2022-07-26T04:44:07.621Z,99328.22
2022-07-26T04:46:34.658Z,99327.88
2022-07-26T04:49:01.790Z,99338.00
2022-07-26T04:51:28.545Z,99308.22
2022-07-26T04:53:55.312Z,99319.50
2022-07-26T04:56:22.370Z,99310.62
2022-07-26T04:58:49.122Z,99319.09
2022-07-26T05:01:16.065Z,99313.78
2022-07-26T05:03:43.101Z,99325.72
2022-07-26T05:06:09.869Z,99314.63
2022-07-26T05:08:36.668Z,99315.66
2022-07-26T05:11:04.283Z,99310.78
2022-07-26T05:13:31.197Z,99308.72
2022-07-26T05:15:59.234Z,99304.00
2022-07-26T05:18:29.893Z,99303.84
2022-07-26T05:20:58.505Z,99315.47
2022-07-26T05:23:25.473Z,99317.16
2022-07-26T05:25:52.804Z,99308.09
2022-07-26T05:28:19.600Z,99315.09
2022-07-26T05:30:46.449Z,99308.78
2022-07-26T05:33:16.747Z,99316.63
2022-07-26T05:35:43.750Z,99311.62
2022-07-26T05:38:10.612Z,99304.75
2022-07-26T05:40:37.644Z,99308.06
2022-07-26T05:43:04.978Z,99306.94
2022-07-26T05:45:31.889Z,99310.16
2022-07-26T05:47:58.934Z,99310.72
2022-07-26T05:50:25.743Z,99300.66
2022-07-26T05:52:52.863Z,99307.59
2022-07-26T05:55:20.024Z,99305.31
2022-07-26T05:57:49.991Z,99307.97
2022-07-26T06:00:17.064Z,99307.59
2022-07-26T06:02:44.389Z,99302.84
2022-07-26T06:05:11.293Z,99302.56
2022-07-26T06:07:38.221Z,99302.06
2022-07-26T06:10:05.570Z,99308.75
2022-07-26T06:12:32.373Z,99305.84
2022-07-26T06:14:59.188Z,99307.41
2022-07-26T06:17:30.245Z,99312.47
2022-07-26T06:19:58.013Z,99318.31
2022-07-26T06:22:25.107Z,99318.88
2022-07-26T06:24:52.242Z,99313.38
2022-07-26T06:27:19.216Z,99323.84
2022-07-26T06:29:48.537Z,99308.47
2022-07-26T06:32:15.802Z,99312.84
2022-07-26T06:34:42.729Z,99312.72
2022-07-26T06:37:09.641Z,99306.03
2022-07-26T06:39:36.753Z,99314.56
2022-07-26T06:42:03.586Z,99303.69
2022-07-26T06:44:30.356Z,99305.81
2022-07-26T06:46:57.505Z,99305.81
2022-07-26T06:49:24.678Z,99307.94
2022-07-26T06:51:51.661Z,99301.75
2022-07-26T06:54:18.776Z,99293.44
2022-07-26T06:56:45.717Z,99301.22
2022-07-26T06:59:12.762Z,99302.53
2022-07-26T07:01:57.477Z,99292.50
2022-07-26T07:04:26.898Z,99290.06
2022-07-26T07:06:54.034Z,99281.88
2022-07-26T07:09:22.070Z,99289.12
2022-07-26T07:11:56.198Z,99290.38
2022-07-26T07:14:26.546Z,99283.28
2022-07-26T07:16:53.717Z,99282.69
2022-07-26T07:19:20.938Z,99289.91
2022-07-26T07:21:48.061Z,99276.06
2022-07-26T07:24:15.183Z,99286.00
2022-07-26T07:26:42.226Z,99281.34
2022-07-26T07:29:14.635Z,99292.41
2022-07-26T07:31:49.013Z,99288.84
2022-07-26T07:34:19.777Z,99296.38
2022-07-26T07:36:47.434Z,99296.12
2022-07-26T07:39:17.222Z,99286.72
2022-07-26T07:41:47.812Z,99290.38
2022-07-26T07:44:14.646Z,99288.41
2022-07-26T07:46:41.814Z,99302.28
2022-07-26T07:49:10.843Z,99300.06
2022-07-26T07:51:38.361Z,99297.38
2022-07-26T07:54:05.856Z,99308.06
2022-07-26T07:56:33.607Z,99312.00
2022-07-26T07:59:00.615Z,99313.00
2022-07-26T08:01:40.580Z,99316.06
2022-07-26T08:04:09.039Z,99312.75
2022-07-26T08:06:36.198Z,99317.88
2022-07-26T08:09:03.903Z,99320.06
2022-07-26T08:11:33.731Z,99312.78
2022-07-26T08:14:00.899Z,99316.91
2022-07-26T08:16:27.694Z,99317.63
2022-07-26T08:19:08.713Z,99304.38
2022-07-26T08:21:36.088Z,99309.72
2022-07-26T08:24:03.151Z,99298.34
2022-07-26T08:26:29.899Z,99309.13
2022-07-26T08:28:59.658Z,99309.22
2022-07-26T08:31:28.152Z,99303.28
2022-07-26T08:33:55.098Z,99313.28
2022-07-26T08:36:22.038Z,99297.31
2022-07-26T08:38:49.106Z,99300.56
2022-07-26T08:41:19.623Z,99295.13
2022-07-26T08:43:51.669Z,99293.38
2022-07-26T08:46:24.758Z,99292.06
2022-07-26T08:48:52.476Z,99280.69
2022-07-26T08:51:19.682Z,99278.44
2022-07-26T08:53:46.417Z,99289.16
2022-07-26T08:56:13.178Z,99286.66
2022-07-26T08:58:40.976Z,99297.59
2022-07-26T09:01:09.162Z,99307.72
2022-07-26T09:03:38.862Z,99298.63
2022-07-26T09:06:12.998Z,99307.72
2022-07-26T09:08:39.797Z,99304.78
2022-07-26T09:11:25.016Z,99318.75
2022-07-26T09:13:54.718Z,99323.25
2022-07-26T09:16:21.947Z,99337.97
2022-07-26T09:18:48.861Z,99348.69
2022-07-26T09:21:28.908Z,99338.53
2022-07-26T09:23:56.658Z,99361.19
2022-07-26T09:26:27.286Z,99370.53
2022-07-26T09:29:10.330Z,99386.00
2022-07-26T09:31:38.337Z,99402.97
2022-07-26T09:34:05.761Z,99418.56
2022-07-26T09:36:32.699Z,99444.13
2022-07-26T09:39:01.155Z,99455.25
2022-07-26T09:41:28.238Z,99473.50
2022-07-26T09:43:56.525Z,99477.72
2022-07-26T09:46:26.175Z,99462.03
2022-07-26T09:49:10.969Z,99427.22
2022-07-26T09:51:42.638Z,99417.41
2022-07-26T09:54:10.434Z,99434.28
2022-07-26T09:56:45.452Z,99442.13
2022-07-26T09:59:16.313Z,99461.53
2022-07-26T10:01:43.744Z,99443.16
2022-07-26T10:04:11.585Z,99429.19
2022-07-26T10:06:38.778Z,99406.28
2022-07-26T10:09:05.991Z,99392.25
2022-07-26T10:11:43.134Z,99406.72
2022-07-26T10:14:34.101Z,99408.28
2022-07-26T10:17:02.293Z,99426.53
2022-07-26T10:19:45.392Z,99445.91
2022-07-26T10:22:30.684Z,99450.00
2022-07-26T10:24:58.686Z,99448.97
2022-07-26T10:27:38.197Z,99461.13
2022-07-26T10:30:20.364Z,99458.28
2022-07-26T10:32:56.710Z,99467.09
2022-07-26T10:35:43.968Z,99476.94
2022-07-26T10:38:11.889Z,99479.69
2022-07-26T10:40:40.092Z,99485.16
2022-07-26T10:43:37.871Z,99474.13
2022-07-26T10:46:15.287Z,99474.56
2022-07-26T10:49:03.959Z,99478.59
2022-07-26T10:51:35.288Z,99467.53
2022-07-26T10:54:08.815Z,99475.22
2022-07-26T10:56:36.279Z,99471.66
2022-07-26T10:59:03.994Z,99483.41
2022-07-26T11:01:34.003Z,99505.03
2022-07-26T11:04:01.071Z,99494.59
2022-07-26T11:06:28.529Z,99489.34
2022-07-26T11:08:56.090Z,99482.22
2022-07-26T11:11:27.888Z,99481.03
2022-07-26T11:14:03.517Z,99478.97
2022-07-26T11:16:36.140Z,99485.75
2022-07-26T11:19:11.995Z,99479.84
2022-07-26T11:21:40.577Z,99481.66
2022-07-26T11:24:07.653Z,99478.25
2022-07-26T11:26:40.503Z,99470.56
2022-07-26T11:29:07.620Z,99473.50
2022-07-26T11:31:51.440Z,99467.69
2022-07-26T11:34:29.140Z,99471.41
2022-07-26T11:36:56.725Z,99480.38
2022-07-26T11:39:33.455Z,99480.53
2022-07-26T11:42:01.919Z,99473.94
2022-07-26T11:44:29.219Z,99483.47
2022-07-26T11:46:58.010Z,99474.38
2022-07-26T11:49:52.759Z,99466.78
2022-07-26T11:52:25.210Z,99479.28
2022-07-26T11:54:53.020Z,99467.22
2022-07-26T11:57:21.114Z,99467.84
2022-07-26T11:59:48.615Z,99474.69
2022-07-26T12:02:15.656Z,99476.31
2022-07-26T12:04:43.657Z,99474.19
2022-07-26T12:07:18.364Z,99474.06
2022-07-26T12:09:49.825Z,99474.13
2022-07-26T12:12:35.399Z,99467.78
2022-07-26T12:15:03.682Z,99468.00
2022-07-26T12:17:35.042Z,99450.25
2022-07-26T12:20:13.118Z,99456.31
2022-07-26T12:22:39.895Z,99446.22
2022-07-26T12:25:07.666Z,99448.88
2022-07-26T12:27:34.460Z,99447.34
2022-07-26T12:30:01.238Z,99445.16
2022-07-26T12:32:32.132Z,99449.81
2022-07-26T12:35:02.991Z,99452.94
2022-07-26T12:37:37.832Z,99450.38
2022-07-26T12:40:12.035Z,99453.31
2022-07-26T12:42:40.282Z,99460.03
2022-07-26T12:45:08.697Z,99458.78
2022-07-26T12:47:36.289Z,99472.81
2022-07-26T12:50:04.285Z,99462.00
2022-07-26T12:52:33.788Z,99460.25
2022-07-26T12:55:00.715Z,99451.38
2022-07-26T12:57:27.815Z,99446.59
2022-07-26T12:59:55.223Z,99448.28
2022-07-26T13:02:22.232Z,99439.94
2022-07-26T13:04:49.435Z,99436.47
2022-07-26T13:07:16.653Z,99436.97
2022-07-26T13:09:43.699Z,99425.19
2022-07-26T13:12:10.916Z,99426.81
2022-07-26T13:14:37.933Z,99426.72
2022-07-26T13:17:05.605Z,99440.38
2022-07-26T13:19:33.210Z,99429.75
2022-07-26T13:22:00.285Z,99441.59
2022-07-26T13:24:27.941Z,99447.41
2022-07-26T13:26:56.551Z,99455.22
2022-07-26T13:29:27.359Z,99443.59
2022-07-26T13:31:55.716Z,99447.59
2022-07-26T13:34:25.981Z,99449.59
2022-07-26T13:36:53.015Z,99447.78
2022-07-26T13:39:23.237Z,99443.19
2022-07-26T13:41:50.368Z,99440.41
2022-07-26T13:44:18.179Z,99439.44
2022-07-26T13:46:45.074Z,99441.97
2022-07-26T13:49:12.767Z,99438.66
2022-07-26T13:51:58.058Z,99453.03
2022-07-26T13:54:25.161Z,99458.69
2022-07-26T13:56:53.286Z,99454.44
2022-07-26T13:59:20.772Z,99456.56
2022-07-26T14:01:48.096Z,99462.16
2022-07-26T14:04:16.190Z,99476.66
2022-07-26T14:06:43.409Z,99470.28
2022-07-26T14:09:11.233Z,99466.69
2022-07-26T14:11:41.880Z,99474.75
2022-07-26T14:14:09.073Z,99472.56
2022-07-26T14:16:36.912Z,99457.22
2022-07-26T14:19:04.004Z,99454.44
2022-07-26T14:21:45.474Z,99453.41
2022-07-26T14:24:20.913Z,99458.88
2022-07-26T14:26:47.852Z,99457.34
2022-07-26T14:29:15.031Z,99467.22
2022-07-26T14:31:42.087Z,99468.37
2022-07-26T14:34:09.180Z,99470.66
2022-07-26T14:36:36.238Z,99468.06
2022-07-26T14:39:03.488Z,99470.72
2022-07-26T14:41:31.688Z,99466.63
2022-07-26T14:43:58.503Z,99460.31
2022-07-26T14:46:25.562Z,99455.25
2022-07-26T14:48:54.865Z,99462.13
2022-07-26T14:51:22.311Z,99469.03
2022-07-26T14:53:49.375Z,99468.37
2022-07-26T14:56:16.091Z,99456.31
2022-07-26T14:58:42.846Z,99461.81
2022-07-26T15:01:10.677Z,99458.50
2022-07-26T15:03:37.497Z,99454.44
2022-07-26T15:06:04.366Z,99451.50
2022-07-26T15:08:31.413Z,99440.38
2022-07-26T15:10:58.198Z,99441.78
2022-07-26T15:13:25.004Z,99445.69
2022-07-26T15:15:52.177Z,99441.66
2022-07-26T15:18:18.959Z,99444.03
2022-07-26T15:20:45.678Z,99437.16
2022-07-26T15:23:15.608Z,99437.91
2022-07-26T15:25:42.446Z,99438.22
2022-07-26T15:28:09.182Z,99428.87
2022-07-26T15:30:36.465Z,99434.81
2022-07-26T15:33:04.223Z,99426.31
2022-07-26T15:35:31.732Z,99423.63
2022-07-26T15:37:59.055Z,99421.37
2022-07-26T15:40:25.904Z,99421.37
2022-07-26T15:42:52.920Z,99426.84
2022-07-26T15:45:20.532Z,99412.66
2022-07-26T15:48:04.606Z,99415.84
2022-07-26T15:50:36.097Z,99427.69
2022-07-26T15:53:02.876Z,99421.31
2022-07-26T15:55:29.728Z,99423.28
2022-07-26T15:57:56.754Z,99426.50
2022-07-26T16:00:23.487Z,99419.91
2022-07-26T16:02:50.657Z,99418.97
2022-07-26T16:05:17.614Z,99422.66
2022-07-26T16:07:44.574Z,99412.31
2022-07-26T16:10:12.628Z,99411.59
2022-07-26T16:12:39.844Z,99406.72
2022-07-26T16:15:07.319Z,99414.16
2022-07-26T16:17:34.409Z,99410.41
2022-07-26T16:20:01.330Z,99417.59
2022-07-26T16:22:28.172Z,99409.44
2022-07-26T16:24:55.370Z,99418.19
2022-07-26T16:27:22.372Z,99423.97
2022-07-26T16:29:52.141Z,99431.88
2022-07-26T16:32:21.298Z,99430.97
2022-07-26T16:34:48.308Z,99443.28
2022-07-26T16:37:15.398Z,99438.97
2022-07-26T16:39:42.599Z,99433.53
2022-07-26T16:42:09.478Z,99436.16
2022-07-26T16:44:36.389Z,99433.03
2022-07-26T16:47:04.090Z,99428.22
2022-07-26T16:49:30.950Z,99429.09
2022-07-26T16:51:57.825Z,99421.63
2022-07-26T16:54:25.035Z,99424.97
2022-07-26T16:56:51.948Z,99420.91
2022-07-26T16:59:18.949Z,99433.34
2022-07-26T17:01:46.122Z,99427.78
2022-07-26T17:04:13.055Z,99424.97
2022-07-26T17:06:39.796Z,99425.91
2022-07-26T17:09:07.219Z,99425.16
2022-07-26T17:11:42.101Z,99429.63
2022-07-26T17:14:09.601Z,99432.53
2022-07-26T17:16:36.811Z,99435.16
2022-07-26T17:19:03.611Z,99440.72
2022-07-26T17:21:30.648Z,99442.91
2022-07-26T17:23:57.455Z,99445.78
2022-07-26T17:26:24.514Z,99446.31
2022-07-26T17:28:51.516Z,99438.75
2022-07-26T17:31:18.370Z,99445.94
2022-07-26T17:33:45.147Z,99440.06
2022-07-26T17:36:19.079Z,99442.13
2022-07-26T17:38:46.375Z,99449.41
2022-07-26T17:41:18.436Z,99442.59
2022-07-26T17:43:45.704Z,99443.44
2022-07-26T17:46:12.526Z,99446.97
2022-07-26T17:48:39.930Z,99451.56
2022-07-26T17:51:06.903Z,99449.69
2022-07-26T17:53:34.145Z,99458.44
2022-07-26T17:56:02.282Z,99454.84
2022-07-26T17:58:29.038Z,99460.53
2022-07-26T18:00:55.845Z,99459.13
2022-07-26T18:03:23.317Z,99462.34
2022-07-26T18:05:51.372Z,99462.75
2022-07-26T18:08:27.119Z,99464.38
2022-07-26T18:10:54.944Z,99463.03
2022-07-26T18:13:21.994Z,99469.56
2022-07-26T18:15:55.468Z,99469.13
2022-07-26T18:18:22.438Z,99465.69
2022-07-26T18:20:50.227Z,99468.16
2022-07-26T18:23:17.241Z,99459.59
2022-07-26T18:25:44.193Z,99454.19
2022-07-26T18:28:11.184Z,99465.81
2022-07-26T18:30:38.271Z,99461.13
2022-07-26T18:33:05.571Z,99462.16
2022-07-26T18:35:37.976Z,99476.72
2022-07-26T18:38:07.001Z,99469.31
2022-07-26T18:40:36.506Z,99469.88
2022-07-26T18:43:03.256Z,99466.84
2022-07-26T18:45:36.843Z,99473.31
2022-07-26T18:48:11.300Z,99477.56
2022-07-26T18:50:46.913Z,99479.75
2022-07-26T18:53:21.104Z,99485.50
2022-07-26T18:55:48.762Z,99489.25
2022-07-26T18:58:27.436Z,99497.91
2022-07-26T19:01:09.906Z,99497.91
2022-07-26T19:03:37.013Z,99503.25
2022-07-26T19:06:16.144Z,99497.81
2022-07-26T19:08:43.262Z,99500.59
2022-07-26T19:11:20.375Z,99498.69
2022-07-26T19:13:47.302Z,99503.22
2022-07-26T19:16:15.323Z,99510.91
2022-07-26T19:18:47.096Z,99506.28
2022-07-26T19:21:17.363Z,99507.22
2022-07-26T19:23:44.161Z,99509.78
2022-07-26T19:26:11.820Z,99508.00
2022-07-26T19:28:38.826Z,99504.38
2022-07-26T19:31:05.882Z,99506.09
2022-07-26T19:33:33.639Z,99506.66
2022-07-26T19:36:05.190Z,99515.19
2022-07-26T19:38:33.217Z,99517.66
2022-07-26T19:41:03.025Z,99512.53
2022-07-26T19:43:32.580Z,99510.03
2022-07-26T19:46:02.075Z,99517.84
2022-07-26T19:48:29.719Z,99529.47
2022-07-26T19:51:00.308Z,99523.00
2022-07-26T19:53:36.411Z,99527.47
2022-07-26T19:56:04.414Z,99521.28
2022-07-26T19:58:31.503Z,99521.25
2022-07-26T20:01:00.365Z,99520.09
2022-07-26T20:03:30.667Z,99523.53
2022-07-26T20:05:58.315Z,99531.81
2022-07-26T20:08:25.352Z,99524.94
2022-07-26T20:10:53.199Z,99529.37
2022-07-26T20:13:20.088Z,99534.88
2022-07-26T20:15:48.950Z,99536.94
2022-07-26T20:18:24.858Z,99524.56
2022-07-26T20:20:53.589Z,99535.87
2022-07-26T20:23:20.701Z,99539.59
2022-07-26T20:25:48.197Z,99545.63
2022-07-26T20:28:15.622Z,99546.19
2022-07-26T20:30:53.408Z,99553.06
2022-07-26T20:33:20.976Z,99554.13
2022-07-26T20:35:52.926Z,99555.78
2022-07-26T20:38:28.448Z,99557.13
2022-07-26T20:40:56.646Z,99551.31
2022-07-26T20:43:23.547Z,99555.06
2022-07-26T20:45:53.683Z,99550.91
2022-07-26T20:48:21.065Z,99552.53
2022-07-26T20:50:47.947Z,99551.91
2022-07-26T20:53:14.757Z,99559.37
2022-07-26T20:55:41.790Z,99557.69
2022-07-26T20:58:08.546Z,99559.47
2022-07-26T21:00:35.876Z,99554.91
2022-07-26T21:03:02.940Z,99560.53
2022-07-26T21:05:32.464Z,99553.69
2022-07-26T21:08:00.087Z,99555.84
2022-07-26T21:10:29.070Z,99554.91
2022-07-26T21:12:57.499Z,99552.28
2022-07-26T21:15:24.384Z,99554.31
2022-07-26T21:17:52.518Z,99554.47
2022-07-26T21:20:19.487Z,99564.94
2022-07-26T21:22:46.206Z,99557.56
2022-07-26T21:25:13.249Z,99561.75
2022-07-26T21:27:40.032Z,99560.28
2022-07-26T21:30:08.755Z,99571.84
2022-07-26T21:32:35.727Z,99579.44
2022-07-26T21:35:02.626Z,99572.31
2022-07-26T21:37:29.572Z,99578.19
2022-07-26T21:39:56.596Z,99572.34
2022-07-26T21:42:27.725Z,99573.13
2022-07-26T21:44:54.868Z,99574.84
2022-07-26T21:47:21.899Z,99578.12
2022-07-26T21:49:48.634Z,99576.63
2022-07-26T21:52:15.973Z,99580.16
2022-07-26T21:54:43.081Z,99582.00
2022-07-26T21:57:09.887Z,99590.53
2022-07-26T21:59:36.660Z,99591.84
2022-07-26T22:02:03.893Z,99597.75
2022-07-26T22:04:31.716Z,99596.16
2022-07-26T22:06:58.631Z,99594.63
2022-07-26T22:09:25.460Z,99582.13
2022-07-26T22:11:53.404Z,99587.63
2022-07-26T22:14:21.469Z,99590.31
2022-07-26T22:16:49.271Z,99595.69
2022-07-26T22:19:16.474Z,99598.03
2022-07-26T22:21:43.232Z,99587.56
2022-07-26T22:24:10.115Z,99596.59
2022-07-26T22:26:37.241Z,99597.25
2022-07-26T22:29:03.972Z,99596.87
2022-07-26T22:31:30.802Z,99598.19
2022-07-26T22:33:57.829Z,99593.03
2022-07-26T22:36:24.913Z,99591.72
2022-07-26T22:38:51.775Z,99593.75
2022-07-26T22:41:18.955Z,99601.31
2022-07-26T22:43:45.652Z,99603.47
2022-07-26T22:46:12.520Z,99607.88
2022-07-26T22:48:42.191Z,99613.41
2022-07-26T22:51:11.193Z,99610.03
2022-07-26T22:53:38.016Z,99607.34
2022-07-26T22:56:05.206Z,99608.62
2022-07-26T22:58:32.588Z,99609.50
2022-07-26T23:00:59.497Z,99610.00
2022-07-26T23:03:26.596Z,99610.63
2022-07-26T23:05:56.916Z,99614.06
2022-07-26T23:11:11.059Z,99624.66
2022-07-26T23:13:40.123Z,99621.66
2022-07-26T23:16:07.174Z,99629.25
2022-07-26T23:18:34.946Z,99613.78
2022-07-26T23:21:01.757Z,99608.94
2022-07-26T23:23:30.479Z,99614.84
2022-07-26T23:25:58.254Z,99601.84
2022-07-26T23:28:36.713Z,99597.91
2022-07-26T23:31:09.031Z,99598.34
2022-07-26T23:33:53.158Z,99600.88
2022-07-26T23:36:26.931Z,99598.31
2022-07-26T23:38:54.338Z,99610.78
2022-07-26T23:41:21.448Z,99611.03
2022-07-26T23:43:48.195Z,99617.66
2022-07-26T23:46:15.161Z,99619.34
2022-07-26T23:48:42.318Z,99622.53
2022-07-26T23:51:09.257Z,99621.75
2022-07-26T23:53:36.400Z,99629.03
2022-07-26T23:56:03.528Z,99628.31
2022-07-26T23:58:30.303Z,99629.06
